PWSweather.com
Personal Weather Stations
Station Observations
EDDERTON
Rossshire, EddertonGB IV191LA

RossshireEddertonGB IV191LA

Lat: 57.838, Lon: -4.176

Elevation: 60

Station Type: Davis Vantage PRO2 Wireless With Solar Sensor

http://www.ardmore-lodge.com

Latest ConditionsUpdated 10:30:06 AM GMT Tuesday, Jul 29, 2014
Currently Today's Max Today's Min Today's Average
Temperature 63.8°F17.7°C 64.2°F17.9°C 56.2°F13.4°C 59.8°F15.4°C
Dew Point 55.7°F13.2°C 56.8°F13.8°C 54.1°F12.3°C 55.4°F13.0°C
Winds 5.6 mph W9.0 kmh W 10.7 mph SW17.2 kmh SW - 3.5 mph 5.6 kmh
Wind Gusts 8.0 mph12.9 kmh 16.0 mph25.7 kmh - -
Humidity 75% 95% 71% 86%
Pressure 29.85 in1010.8 mb 29.95 in1014.2 mb 29.84 in1010.5 mb -
Hour Temp Dew Point Humidity Winds Wind Gusts Pressure Precip Precip Rate Daily Precip Total
10:30 AM 63.8°F17.7°C 55.7°F13.2°C 75% 5.6 mph W9.0 kmh W 8.0 mph12.9 kmh 29.85 in1010.8 mb 0.00 in0.0 mm 0.00 in/hr0.0 mm/hr 0.00 in0.0 mm
10:15 AM 62.9°F17.2°C 55.9°F13.3°C 78% 4.5 mph NW7.2 kmh NW 8.0 mph12.9 kmh 29.85 in1010.8 mb 0.00 in0.0 mm 0.00 in/hr0.0 mm/hr 0.00 in0.0 mm
10:00 AM 62.4°F16.9°C 56.5°F13.6°C 81% 3.0 mph NNW4.8 kmh NNW 4.0 mph6.4 kmh 29.85 in1010.8 mb 0.00 in0.0 mm 0.00 in/hr0.0 mm/hr 0.00 in0.0 mm
09:45 AM 61.4°F16.3°C 55.9°F13.3°C 82% 3.0 mph WNW4.8 kmh WNW 4.0 mph6.4 kmh 29.85 in1010.8 mb 0.00 in0.0 mm 0.00 in/hr0.0 mm/hr 0.00 in0.0 mm
09:30 AM 61.8°F16.6°C 55.2°F12.9°C 79% 5.7 mph W9.2 kmh W 9.0 mph14.5 kmh 29.85 in1010.8 mb 0.00 in0.0 mm 0.00 in/hr0.0 mm/hr 0.00 in0.0 mm
09:15 AM 63.2°F17.3°C 55.9°F13.3°C 77% 4.4 mph NW7.1 kmh NW 9.0 mph14.5 kmh 29.85 in1010.8 mb 0.00 in0.0 mm 0.00 in/hr0.0 mm/hr 0.00 in0.0 mm
09:00 AM 64.2°F17.9°C 56.8°F13.8°C 77% 5.0 mph WNW8.0 kmh WNW 12.0 mph19.3 kmh 29.85 in1010.8 mb 0.00 in0.0 mm 0.00 in/hr0.0 mm/hr 0.00 in0.0 mm
08:45 AM 63.6°F17.6°C 54.1°F12.3°C 71% 8.4 mph WSW13.5 kmh WSW 16.0 mph25.7 kmh 29.84 in1010.5 mb 0.00 in0.0 mm 0.00 in/hr0.0 mm/hr 0.00 in0.0 mm
08:30 AM 62.4°F16.9°C 55.4°F13.0°C 78% 1.6 mph W2.6 kmh W 6.0 mph9.7 kmh 29.85 in1010.8 mb 0.00 in0.0 mm 0.00 in/hr0.0 mm/hr 0.00 in0.0 mm
08:15 AM 61.9°F16.6°C 56.0°F13.3°C 81% 2.9 mph W4.7 kmh W 5.0 mph8.0 kmh 29.85 in1010.8 mb 0.00 in0.0 mm 0.00 in/hr0.0 mm/hr 0.00 in0.0 mm
08:00 AM 60.9°F16.1°C 56.0°F13.3°C 84% 1.8 mph WNW2.9 kmh WNW 4.0 mph6.4 kmh 29.86 in1011.2 mb 0.00 in0.0 mm 0.00 in/hr0.0 mm/hr 0.00 in0.0 mm
07:45 AM 60.3°F15.7°C 55.4°F13.0°C 84% 2.6 mph W4.2 kmh W 4.0 mph6.4 kmh 29.86 in1011.2 mb 0.00 in0.0 mm 0.00 in/hr0.0 mm/hr 0.00 in0.0 mm
07:30 AM 59.7°F15.4°C 55.5°F13.1°C 86% 4.8 mph WNW7.7 kmh WNW 6.0 mph9.7 kmh 29.86 in1011.2 mb 0.00 in0.0 mm 0.00 in/hr0.0 mm/hr 0.00 in0.0 mm
07:15 AM 59.8°F15.4°C 55.6°F13.1°C 86% 2.5 mph W4.0 kmh W 6.0 mph9.7 kmh 29.86 in1011.2 mb 0.00 in0.0 mm 0.00 in/hr0.0 mm/hr 0.00 in0.0 mm
07:00 AM 60.3°F15.7°C 55.4°F13.0°C 84% 4.3 mph WNW6.9 kmh WNW 11.0 mph17.7 kmh 29.86 in1011.2 mb 0.00 in0.0 mm 0.00 in/hr0.0 mm/hr 0.00 in0.0 mm
06:45 AM 60.6°F15.9°C 56.4°F13.6°C 86% 4.5 mph WNW7.2 kmh WNW 6.0 mph9.7 kmh 29.86 in1011.2 mb 0.00 in0.0 mm 0.00 in/hr0.0 mm/hr 0.00 in0.0 mm
06:30 AM 60.5°F15.8°C 56.6°F13.7°C 87% 1.9 mph NNW3.1 kmh NNW 7.0 mph11.3 kmh 29.86 in1011.2 mb 0.00 in0.0 mm 0.00 in/hr0.0 mm/hr 0.00 in0.0 mm
06:15 AM 60.8°F16.0°C 56.6°F13.7°C 86% 3.3 mph NW5.3 kmh NW 9.0 mph14.5 kmh 29.86 in1011.2 mb 0.00 in0.0 mm 0.00 in/hr0.0 mm/hr 0.00 in0.0 mm
06:00 AM 61.2°F16.2°C 56.0°F13.3°C 83% 9.4 mph NW15.1 kmh NW 12.0 mph19.3 kmh 29.85 in1010.8 mb 0.00 in0.0 mm 0.00 in/hr0.0 mm/hr 0.00 in0.0 mm
05:45 AM 60.8°F16.0°C 55.6°F13.1°C 83% 10.7 mph SW17.2 kmh SW 14.0 mph22.5 kmh 29.85 in1010.8 mb 0.00 in0.0 mm 0.00 in/hr0.0 mm/hr 0.00 in0.0 mm
05:30 AM 60.4°F15.8°C 55.2°F12.9°C 83% 9.3 mph SW15.0 kmh SW 12.0 mph19.3 kmh 29.85 in1010.8 mb 0.00 in0.0 mm 0.00 in/hr0.0 mm/hr 0.00 in0.0 mm
05:15 AM 60.9°F16.1°C 56.0°F13.3°C 84% 6.4 mph WSW10.3 kmh WSW 11.0 mph17.7 kmh 29.86 in1011.2 mb 0.00 in0.0 mm 0.00 in/hr0.0 mm/hr 0.00 in0.0 mm
05:00 AM 60.7°F15.9°C 55.8°F13.2°C 84% 6.4 mph W10.3 kmh W 10.0 mph16.1 kmh 29.86 in1011.2 mb 0.00 in0.0 mm 0.00 in/hr0.0 mm/hr 0.00 in0.0 mm
04:45 AM 60.5°F15.8°C 55.6°F13.1°C 84% 4.9 mph W7.9 kmh W 7.0 mph11.3 kmh 29.86 in1011.2 mb 0.00 in0.0 mm 0.00 in/hr0.0 mm/hr 0.00 in0.0 mm
04:30 AM 60.1°F15.6°C 54.9°F12.7°C 83% 2.9 mph WSW4.7 kmh WSW 6.0 mph9.7 kmh 29.86 in1011.2 mb 0.00 in0.0 mm 0.00 in/hr0.0 mm/hr 0.00 in0.0 mm
04:15 AM 59.2°F15.1°C 55.0°F12.8°C 86% 6.3 mph WSW10.1 kmh WSW 10.0 mph16.1 kmh 29.87 in1011.5 mb 0.00 in0.0 mm 0.00 in/hr0.0 mm/hr 0.00 in0.0 mm
04:00 AM 58.8°F14.9°C 54.9°F12.7°C 87% 2.9 mph WSW4.7 kmh WSW 4.0 mph6.4 kmh 29.88 in1011.9 mb 0.00 in0.0 mm 0.00 in/hr0.0 mm/hr 0.00 in0.0 mm
03:45 AM 58.8°F14.9°C 54.6°F12.6°C 86% 2.9 mph W4.7 kmh W 5.0 mph8.0 kmh 29.88 in1011.9 mb 0.00 in0.0 mm 0.00 in/hr0.0 mm/hr 0.00 in0.0 mm
03:30 AM 58.7°F14.8°C 54.9°F12.7°C 87% 2.1 mph NW3.4 kmh NW 5.0 mph8.0 kmh 29.89 in1012.2 mb 0.00 in0.0 mm 0.00 in/hr0.0 mm/hr 0.00 in0.0 mm
03:15 AM 58.7°F14.8°C 54.8°F12.7°C 87% 1.5 mph NW2.4 kmh NW 3.0 mph4.8 kmh 29.89 in1012.2 mb 0.00 in0.0 mm 0.00 in/hr0.0 mm/hr 0.00 in0.0 mm
03:00 AM 57.9°F14.4°C 55.0°F12.8°C 90% 2.7 mph NW4.3 kmh NW 4.0 mph6.4 kmh 29.89 in1012.2 mb 0.00 in0.0 mm 0.00 in/hr0.0 mm/hr 0.00 in0.0 mm
02:45 AM 57.4°F14.1°C 54.8°F12.7°C 91% 1.2 mph NW1.9 kmh NW 3.0 mph4.8 kmh 29.90 in1012.5 mb 0.00 in0.0 mm 0.00 in/hr0.0 mm/hr 0.00 in0.0 mm
02:30 AM 57.4°F14.1°C 55.1°F12.8°C 92% Calm Calm -- 29.91 in1012.9 mb 0.00 in0.0 mm 0.00 in/hr0.0 mm/hr 0.00 in0.0 mm
02:15 AM 57.2°F14.0°C 54.9°F12.7°C 92% Calm Calm 2.0 mph3.2 kmh 29.91 in1012.9 mb 0.00 in0.0 mm 0.00 in/hr0.0 mm/hr 0.00 in0.0 mm
02:00 AM 56.6°F13.7°C 54.6°F12.6°C 93% 0.5 mph NW0.8 kmh NW 1.0 mph1.6 kmh 29.91 in1012.9 mb 0.00 in0.0 mm 0.00 in/hr0.0 mm/hr 0.00 in0.0 mm
01:45 AM 56.5°F13.6°C 54.5°F12.5°C 93% 2.2 mph NW3.5 kmh NW 3.0 mph4.8 kmh 29.92 in1013.2 mb 0.00 in0.0 mm 0.00 in/hr0.0 mm/hr 0.00 in0.0 mm
01:30 AM 56.3°F13.5°C 54.6°F12.6°C 94% 1.5 mph NW2.4 kmh NW 2.0 mph3.2 kmh 29.92 in1013.2 mb 0.00 in0.0 mm 0.00 in/hr0.0 mm/hr 0.00 in0.0 mm
01:15 AM 56.3°F13.5°C 54.6°F12.6°C 94% 0.5 mph NNW0.8 kmh NNW 2.0 mph3.2 kmh 29.93 in1013.5 mb 0.00 in0.0 mm 0.00 in/hr0.0 mm/hr 0.00 in0.0 mm
01:00 AM 56.3°F13.5°C 54.9°F12.7°C 95% 1.3 mph NNW2.1 kmh NNW 2.0 mph3.2 kmh 29.93 in1013.5 mb 0.00 in0.0 mm 0.00 in/hr0.0 mm/hr 0.00 in0.0 mm
12:45 AM 56.2°F13.4°C 54.5°F12.5°C 94% 0.3 mph NNW0.5 kmh NNW 2.0 mph3.2 kmh 29.93 in1013.5 mb 0.00 in0.0 mm 0.00 in/hr0.0 mm/hr 0.00 in0.0 mm
12:30 AM 57.0°F13.9°C 55.3°F12.9°C 94% 1.8 mph NNW2.9 kmh NNW 2.0 mph3.2 kmh 29.94 in1013.9 mb 0.00 in0.0 mm 0.00 in/hr0.0 mm/hr 0.00 in0.0 mm
12:15 AM 57.4°F14.1°C 55.4°F13.0°C 93% 1.9 mph NNW3.1 kmh NNW 3.0 mph4.8 kmh 29.95 in1014.2 mb 0.00 in0.0 mm 0.00 in/hr0.0 mm/hr 0.00 in0.0 mm
12:00 AM 57.8°F14.3°C 55.7°F13.2°C 93% 1.5 mph NNW2.4 kmh NNW 3.0 mph4.8 kmh 29.95 in1014.2 mb 0.00 in0.0 mm 0.00 in/hr0.0 mm/hr 0.00 in0.0 mm